sensor_id;sensor_type;location;lat;lon;timestamp;pressure;altitude;pressure_sealevel;temperature;humidity
77325;BME280;66387;53.440;10.390;2023-03-31T00:01:26;99600.75;;;10.25;89.02
77325;BME280;66387;53.440;10.390;2023-03-31T00:03:51;99613.63;;;10.28;87.96
77325;BME280;66387;53.440;10.390;2023-03-31T00:06:26;99604.06;;;10.30;88.96
77325;BME280;66387;53.440;10.390;2023-03-31T00:08:51;99604.00;;;10.32;88.10
77325;BME280;66387;53.440;10.390;2023-03-31T00:11:18;99612.53;;;10.37;88.19
77325;BME280;66387;53.440;10.390;2023-03-31T00:13:43;99607.47;;;10.32;88.15
77325;BME280;66387;53.440;10.390;2023-03-31T00:16:09;99606.66;;;10.30;88.48
77325;BME280;66387;53.440;10.390;2023-03-31T00:18:35;99598.06;;;10.28;87.72
77325;BME280;66387;53.440;10.390;2023-03-31T00:21:10;99597.09;;;10.32;86.95
77325;BME280;66387;53.440;10.390;2023-03-31T00:23:39;99600.50;;;10.35;87.47
77325;BME280;66387;53.440;10.390;2023-03-31T00:26:04;99598.81;;;10.32;87.30
77325;BME280;66387;53.440;10.390;2023-03-31T00:28:30;99603.88;;;10.37;86.12
77325;BME280;66387;53.440;10.390;2023-03-31T00:30:59;99605.63;;;10.36;86.83
77325;BME280;66387;53.440;10.390;2023-03-31T00:33:25;99593.53;;;10.35;87.43
77325;BME280;66387;53.440;10.390;2023-03-31T00:35:51;99595.25;;;10.36;86.40
77325;BME280;66387;53.440;10.390;2023-03-31T00:38:16;99589.31;;;10.32;86.37
77325;BME280;66387;53.440;10.390;2023-03-31T00:40:44;99589.41;;;10.29;86.98
77325;BME280;66387;53.440;10.390;2023-03-31T00:43:24;99587.66;;;10.30;86.30
77325;BME280;66387;53.440;10.390;2023-03-31T00:45:50;99589.41;;;10.29;85.66
77325;BME280;66387;53.440;10.390;2023-03-31T00:48:17;99588.50;;;10.30;85.42
77325;BME280;66387;53.440;10.390;2023-03-31T00:50:51;99581.53;;;10.32;85.63
77325;BME280;66387;53.440;10.390;2023-03-31T00:53:20;99583.25;;;10.32;86.30
77325;BME280;66387;53.440;10.390;2023-03-31T00:55:50;99583.22;;;10.33;85.63
77325;BME280;66387;53.440;10.390;2023-03-31T00:58:18;99567.00;;;10.27;85.73
77325;BME280;66387;53.440;10.390;2023-03-31T01:00:48;99577.31;;;10.28;86.17
77325;BME280;66387;53.440;10.390;2023-03-31T01:03:15;99570.50;;;10.24;86.43
77325;BME280;66387;53.440;10.390;2023-03-31T01:05:45;99572.13;;;10.28;86.21
77325;BME280;66387;53.440;10.390;2023-03-31T01:08:13;99558.38;;;10.26;85.92
77325;BME280;66387;53.440;10.390;2023-03-31T01:10:41;99559.25;;;10.25;86.42
77325;BME280;66387;53.440;10.390;2023-03-31T01:13:11;99560.41;;;10.15;86.35
77325;BME280;66387;53.440;10.390;2023-03-31T01:15:38;99554.31;;;10.16;86.16
77325;BME280;66387;53.440;10.390;2023-03-31T01:18:05;99544.09;;;10.10;86.74
77325;BME280;66387;53.440;10.390;2023-03-31T01:23:28;99546.75;;;10.09;86.47
77325;BME280;66387;53.440;10.390;2023-03-31T01:26:15;99539.09;;;10.04;87.71
77325;BME280;66387;53.440;10.390;2023-03-31T01:29:05;99533.25;;;9.96;87.36
77325;BME280;66387;53.440;10.390;2023-03-31T01:39:53;99521.59;;;9.80;88.67
77325;BME280;66387;53.440;10.390;2023-03-31T01:45:06;99525.25;;;9.73;89.63
77325;BME280;66387;53.440;10.390;2023-03-31T01:47:41;99517.66;;;9.67;90.01
77325;BME280;66387;53.440;10.390;2023-03-31T01:52:49;99508.34;;;9.60;90.49
77325;BME280;66387;53.440;10.390;2023-03-31T01:55:23;99511.91;;;9.56;89.92
77325;BME280;66387;53.440;10.390;2023-03-31T01:58:22;99507.66;;;9.53;90.68
77325;BME280;66387;53.440;10.390;2023-03-31T02:01:01;99511.97;;;9.53;89.83
77325;BME280;66387;53.440;10.390;2023-03-31T02:03:32;99515.78;;;9.40;90.70
77325;BME280;66387;53.440;10.390;2023-03-31T02:06:09;99498.56;;;9.37;91.11
77325;BME280;66387;53.440;10.390;2023-03-31T02:08:51;99498.72;;;9.32;91.35
77325;BME280;66387;53.440;10.390;2023-03-31T02:11:19;99495.13;;;9.36;91.73
77325;BME280;66387;53.440;10.390;2023-03-31T02:13:46;99495.56;;;9.21;91.13
77325;BME280;66387;53.440;10.390;2023-03-31T02:16:17;99486.00;;;9.22;92.02
77325;BME280;66387;53.440;10.390;2023-03-31T02:18:46;99490.41;;;9.18;91.78
77325;BME280;66387;53.440;10.390;2023-03-31T02:21:12;99483.41;;;9.23;91.49
77325;BME280;66387;53.440;10.390;2023-03-31T02:23:41;99476.69;;;9.16;92.06
77325;BME280;66387;53.440;10.390;2023-03-31T02:26:27;99479.06;;;9.24;91.84
77325;BME280;66387;53.440;10.390;2023-03-31T02:28:53;99467.19;;;9.17;91.96
77325;BME280;66387;53.440;10.390;2023-03-31T02:31:25;99472.50;;;9.11;92.75
77325;BME280;66387;53.440;10.390;2023-03-31T02:33:52;99456.94;;;9.12;92.66
77325;BME280;66387;53.440;10.390;2023-03-31T02:36:18;99463.84;;;9.12;92.37
77325;BME280;66387;53.440;10.390;2023-03-31T02:38:50;99456.94;;;9.12;91.98
77325;BME280;66387;53.440;10.390;2023-03-31T02:41:17;99453.59;;;9.07;92.55
77325;BME280;66387;53.440;10.390;2023-03-31T02:43:42;99454.50;;;9.06;92.23
77325;BME280;66387;53.440;10.390;2023-03-31T02:46:08;99451.19;;;9.01;92.20
77325;BME280;66387;53.440;10.390;2023-03-31T02:48:37;99446.00;;;9.01;93.09
77325;BME280;66387;53.440;10.390;2023-03-31T03:01:39;99429.88;;;8.90;92.71
77325;BME280;66387;53.440;10.390;2023-03-31T03:04:44;99429.19;;;8.85;93.23
77325;BME280;66387;53.440;10.390;2023-03-31T03:07:34;99429.97;;;8.87;93.28
77325;BME280;66387;53.440;10.390;2023-03-31T03:10:24;99429.31;;;8.79;93.75
77325;BME280;66387;53.440;10.390;2023-03-31T03:15:47;99415.31;;;8.86;93.52
77325;BME280;66387;53.440;10.390;2023-03-31T03:18:14;99418.88;;;8.82;93.45
77325;BME280;66387;53.440;10.390;2023-03-31T03:20:41;99417.91;;;8.86;93.81
77325;BME280;66387;53.440;10.390;2023-03-31T03:23:07;99411.94;;;8.84;93.42
77325;BME280;66387;53.440;10.390;2023-03-31T03:25:33;99413.59;;;8.86;93.72
77325;BME280;66387;53.440;10.390;2023-03-31T03:27:59;99401.53;;;8.85;93.91
77325;BME280;66387;53.440;10.390;2023-03-31T03:30:24;99414.53;;;8.84;93.52
77325;BME280;66387;53.440;10.390;2023-03-31T03:32:50;99399.88;;;8.83;93.74
77325;BME280;66387;53.440;10.390;2023-03-31T03:35:15;99402.34;;;8.88;93.67
77325;BME280;66387;53.440;10.390;2023-03-31T03:37:40;99397.19;;;8.88;93.28
77325;BME280;66387;53.440;10.390;2023-03-31T03:40:06;99396.22;;;8.92;93.42
77325;BME280;66387;53.440;10.390;2023-03-31T03:42:33;99402.34;;;8.88;93.85
77325;BME280;66387;53.440;10.390;2023-03-31T03:44:58;99398.03;;;8.88;93.65
77325;BME280;66387;53.440;10.390;2023-03-31T03:47:24;99406.59;;;8.90;93.65
77325;BME280;66387;53.440;10.390;2023-03-31T03:49:49;99394.63;;;8.86;93.75
77325;BME280;66387;53.440;10.390;2023-03-31T03:52:15;99394.53;;;8.89;93.47
77325;BME280;66387;53.440;10.390;2023-03-31T03:54:40;99389.31;;;8.92;93.82
77325;BME280;66387;53.440;10.390;2023-03-31T03:57:05;99381.56;;;8.91;93.64
77325;BME280;66387;53.440;10.390;2023-03-31T03:59:31;99379.78;;;8.93;93.57
77325;BME280;66387;53.440;10.390;2023-03-31T04:01:56;99380.53;;;8.96;93.77
77325;BME280;66387;53.440;10.390;2023-03-31T04:04:22;99382.25;;;8.97;93.30
77325;BME280;66387;53.440;10.390;2023-03-31T04:06:47;99378.19;;;8.89;93.85
77325;BME280;66387;53.440;10.390;2023-03-31T04:09:12;99376.28;;;8.95;93.80
77325;BME280;66387;53.440;10.390;2023-03-31T04:11:37;99372.00;;;8.94;93.48
77325;BME280;66387;53.440;10.390;2023-03-31T04:14:03;99364.13;;;8.97;93.56
77325;BME280;66387;53.440;10.390;2023-03-31T04:16:28;99361.63;;;8.94;93.62
77325;BME280;66387;53.440;10.390;2023-03-31T04:18:54;99358.09;;;8.98;93.31
77325;BME280;66387;53.440;10.390;2023-03-31T04:21:23;99354.53;;;9.02;93.14
77325;BME280;66387;53.440;10.390;2023-03-31T04:23:50;99346.78;;;9.01;93.06
77325;BME280;66387;53.440;10.390;2023-03-31T04:26:23;99344.16;;;9.02;93.58
77325;BME280;66387;53.440;10.390;2023-03-31T04:28:54;99332.00;;;9.06;93.98
77325;BME280;66387;53.440;10.390;2023-03-31T04:31:23;99330.47;;;8.99;93.91
77325;BME280;66387;53.440;10.390;2023-03-31T04:33:52;99325.16;;;9.03;93.36
77325;BME280;66387;53.440;10.390;2023-03-31T04:36:17;99320.03;;;9.00;93.57
77325;BME280;66387;53.440;10.390;2023-03-31T04:38:47;99320.03;;;9.02;94.00
77325;BME280;66387;53.440;10.390;2023-03-31T04:41:15;99311.31;;;9.04;93.64
77325;BME280;66387;53.440;10.390;2023-03-31T04:43:41;99310.34;;;9.08;93.23
77325;BME280;66387;53.440;10.390;2023-03-31T04:46:06;99306.97;;;9.06;93.16
77325;BME280;66387;53.440;10.390;2023-03-31T04:48:31;99310.34;;;9.08;93.59
77325;BME280;66387;53.440;10.390;2023-03-31T04:50:57;99306.97;;;9.06;93.54
77325;BME280;66387;53.440;10.390;2023-03-31T04:53:22;99297.50;;;9.05;93.27
77325;BME280;66387;53.440;10.390;2023-03-31T04:55:48;99290.34;;;9.13;92.68
77325;BME280;66387;53.440;10.390;2023-03-31T04:58:14;99287.72;;;9.15;92.64
77325;BME280;66387;53.440;10.390;2023-03-31T05:00:40;99279.06;;;9.16;92.86
77325;BME280;66387;53.440;10.390;2023-03-31T05:03:05;99278.13;;;9.18;92.83
77325;BME280;66387;53.440;10.390;2023-03-31T05:05:31;99278.94;;;9.20;92.52
77325;BME280;66387;53.440;10.390;2023-03-31T05:07:56;99274.63;;;9.21;92.42
77325;BME280;66387;53.440;10.390;2023-03-31T05:10:21;99279.63;;;9.25;92.98
77325;BME280;66387;53.440;10.390;2023-03-31T05:12:46;99273.53;;;9.28;91.80
77325;BME280;66387;53.440;10.390;2023-03-31T05:15:13;99269.22;;;9.28;92.21
77325;BME280;66387;53.440;10.390;2023-03-31T05:17:38;99270.09;;;9.27;92.53
77325;BME280;66387;53.440;10.390;2023-03-31T05:20:04;99271.81;;;9.28;92.38
77325;BME280;66387;53.440;10.390;2023-03-31T05:22:34;99264.84;;;9.29;92.77
77325;BME280;66387;53.440;10.390;2023-03-31T05:24:59;99263.06;;;9.32;92.26
77325;BME280;66387;53.440;10.390;2023-03-31T05:27:24;99250.00;;;9.35;91.97
77325;BME280;66387;53.440;10.390;2023-03-31T05:29:50;99256.94;;;9.35;91.48
77325;BME280;66387;53.440;10.390;2023-03-31T05:32:15;99244.00;;;9.33;92.35
77325;BME280;66387;53.440;10.390;2023-03-31T05:34:40;99243.88;;;9.38;91.51
77325;BME280;66387;53.440;10.390;2023-03-31T05:37:07;99228.22;;;9.43;91.80
77325;BME280;66387;53.440;10.390;2023-03-31T05:39:32;99228.09;;;9.46;91.82
77325;BME280;66387;53.440;10.390;2023-03-31T05:41:58;99222.94;;;9.46;91.46
77325;BME280;66387;53.440;10.390;2023-03-31T05:44:24;99220.22;;;9.50;91.27
77325;BME280;66387;53.440;10.390;2023-03-31T05:46:50;99216.78;;;9.48;90.97
77325;BME280;66387;53.440;10.390;2023-03-31T05:49:16;99217.69;;;9.47;91.05
77325;BME280;66387;53.440;10.390;2023-03-31T05:51:41;99227.91;;;9.52;91.42
77325;BME280;66387;53.440;10.390;2023-03-31T05:54:07;99228.72;;;9.54;90.96
77325;BME280;66387;53.440;10.390;2023-03-31T05:56:32;99221.00;;;9.52;90.03
77325;BME280;66387;53.440;10.390;2023-03-31T05:59:01;99216.56;;;9.56;90.90
77325;BME280;66387;53.440;10.390;2023-03-31T06:01:26;99226.81;;;9.59;89.93
77325;BME280;66387;53.440;10.390;2023-03-31T06:03:53;99219.13;;;9.57;90.79
77325;BME280;66387;53.440;10.390;2023-03-31T06:06:19;99215.69;;;9.57;90.83
77325;BME280;66387;53.440;10.390;2023-03-31T06:08:46;99209.59;;;9.58;90.58
77325;BME280;66387;53.440;10.390;2023-03-31T06:11:17;99210.25;;;9.64;90.63
77325;BME280;66387;53.440;10.390;2023-03-31T06:13:46;99211.09;;;9.65;90.37
77325;BME280;66387;53.440;10.390;2023-03-31T06:16:12;99207.69;;;9.63;90.43
77325;BME280;66387;53.440;10.390;2023-03-31T06:18:38;99205.94;;;9.65;90.04
77325;BME280;66387;53.440;10.390;2023-03-31T06:21:05;99217.88;;;9.69;90.44
77325;BME280;66387;53.440;10.390;2023-03-31T06:23:30;99215.38;;;9.66;90.35
77325;BME280;66387;53.440;10.390;2023-03-31T06:26:03;99214.38;;;9.70;89.56
77325;BME280;66387;53.440;10.390;2023-03-31T06:28:30;99204.13;;;9.67;90.13
77325;BME280;66387;53.440;10.390;2023-03-31T06:31:07;99214.28;;;9.73;90.33
77325;BME280;66387;53.440;10.390;2023-03-31T06:33:34;99203.03;;;9.74;90.12
77325;BME280;66387;53.440;10.390;2023-03-31T06:36:00;99207.31;;;9.75;90.25
77325;BME280;66387;53.440;10.390;2023-03-31T06:38:29;99198.72;;;9.73;89.56
77325;BME280;66387;53.440;10.390;2023-03-31T06:40:55;99197.69;;;9.78;90.21
77325;BME280;66387;53.440;10.390;2023-03-31T06:43:20;99189.69;;;9.86;90.02
77325;BME280;66387;53.440;10.390;2023-03-31T06:45:46;99196.47;;;9.90;88.78
77325;BME280;66387;53.440;10.390;2023-03-31T06:48:12;99193.00;;;9.90;89.99
77325;BME280;66387;53.440;10.390;2023-03-31T06:50:38;99198.06;;;9.94;90.15
77325;BME280;66387;53.440;10.390;2023-03-31T06:53:04;99185.03;;;9.96;89.58
77325;BME280;66387;53.440;10.390;2023-03-31T06:55:29;99192.75;;;9.97;89.57
77325;BME280;66387;53.440;10.390;2023-03-31T06:57:55;99199.72;;;9.95;88.93
77325;BME280;66387;53.440;10.390;2023-03-31T07:00:20;99194.53;;;9.95;89.42
77325;BME280;66387;53.440;10.390;2023-03-31T07:02:46;99196.56;;;9.87;90.31
77325;BME280;66387;53.440;10.390;2023-03-31T07:05:11;99192.63;;;10.02;89.15
77325;BME280;66387;53.440;10.390;2023-03-31T07:07:36;99186.59;;;10.01;88.61
77325;BME280;66387;53.440;10.390;2023-03-31T07:10:01;99187.16;;;10.09;88.88
77325;BME280;66387;53.440;10.390;2023-03-31T07:12:27;99182.88;;;10.08;87.91
77325;BME280;66387;53.440;10.390;2023-03-31T07:14:53;99178.28;;;10.16;88.82
77325;BME280;66387;53.440;10.390;2023-03-31T07:17:19;99175.69;;;10.16;88.28
77325;BME280;66387;53.440;10.390;2023-03-31T07:19:44;99171.44;;;10.14;88.13
77325;BME280;66387;53.440;10.390;2023-03-31T07:22:15;99170.44;;;10.19;87.95
77325;BME280;66387;53.440;10.390;2023-03-31T07:24:40;99167.72;;;10.22;88.74
77325;BME280;66387;53.440;10.390;2023-03-31T07:27:05;99169.50;;;10.20;87.45
77325;BME280;66387;53.440;10.390;2023-03-31T07:29:30;99174.63;;;10.23;87.90
77325;BME280;66387;53.440;10.390;2023-03-31T07:31:56;99169.31;;;10.26;87.40
77325;BME280;66387;53.440;10.390;2023-03-31T07:34:21;99162.19;;;10.31;87.29
77325;BME280;66387;53.440;10.390;2023-03-31T07:36:46;99163.16;;;10.29;87.05
77325;BME280;66387;53.440;10.390;2023-03-31T07:39:11;99157.00;;;10.31;88.45
77325;BME280;66387;53.440;10.390;2023-03-31T07:41:37;99158.59;;;10.36;87.69
77325;BME280;66387;53.440;10.390;2023-03-31T07:44:02;99147.91;;;10.45;87.79
77325;BME280;66387;53.440;10.390;2023-03-31T07:46:28;99151.53;;;10.41;87.03
77325;BME280;66387;53.440;10.390;2023-03-31T07:48:55;99150.50;;;10.45;86.87
77325;BME280;66387;53.440;10.390;2023-03-31T07:51:22;99150.56;;;10.43;86.29
77325;BME280;66387;53.440;10.390;2023-03-31T07:53:48;99136.63;;;10.46;86.50
77325;BME280;66387;53.440;10.390;2023-03-31T07:56:16;99138.44;;;10.44;85.53
77325;BME280;66387;53.440;10.390;2023-03-31T07:58:42;99140.19;;;10.43;86.43
77325;BME280;66387;53.440;10.390;2023-03-31T08:01:07;99136.81;;;10.41;86.61
77325;BME280;66387;53.440;10.390;2023-03-31T08:03:33;99139.56;;;10.37;87.08
77325;BME280;66387;53.440;10.390;2023-03-31T08:05:59;99140.53;;;10.34;87.02
77325;BME280;66387;53.440;10.390;2023-03-31T08:08:24;99130.47;;;10.25;87.04
77325;BME280;66387;53.440;10.390;2023-03-31T08:10:49;99122.56;;;10.28;87.01
77325;BME280;66387;53.440;10.390;2023-03-31T08:13:15;99129.72;;;10.21;87.68
77325;BME280;66387;53.440;10.390;2023-03-31T08:15:40;99126.34;;;10.19;88.29
77325;BME280;66387;53.440;10.390;2023-03-31T08:18:06;99129.72;;;10.21;88.98
77325;BME280;66387;53.440;10.390;2023-03-31T08:20:31;99117.00;;;10.14;88.65
77325;BME280;66387;53.440;10.390;2023-03-31T08:22:57;99118.97;;;10.07;89.09
77325;BME280;66387;53.440;10.390;2023-03-31T08:25:22;99111.81;;;10.14;90.64
77325;BME280;66387;53.440;10.390;2023-03-31T08:27:48;99111.06;;;10.10;90.22
77325;BME280;66387;53.440;10.390;2023-03-31T08:30:15;99108.34;;;10.15;90.68
77325;BME280;66387;53.440;10.390;2023-03-31T08:32:41;99105.94;;;10.09;91.29
77325;BME280;66387;53.440;10.390;2023-03-31T08:35:07;99112.56;;;10.17;91.74
77325;BME280;66387;53.440;10.390;2023-03-31T08:37:32;99110.22;;;10.10;91.30
77325;BME280;66387;53.440;10.390;2023-03-31T08:39:58;99115.09;;;9.94;92.51
77325;BME280;66387;53.440;10.390;2023-03-31T08:42:41;99101.03;;;10.01;93.63
77325;BME280;66387;53.440;10.390;2023-03-31T08:45:19;99097.44;;;10.05;92.26
77325;BME280;66387;53.440;10.390;2023-03-31T08:47:49;99095.38;;;10.13;92.32
77325;BME280;66387;53.440;10.390;2023-03-31T08:50:19;99097.75;;;10.21;93.10
77325;BME280;66387;53.440;10.390;2023-03-31T08:55:30;99087.06;;;10.05;92.08
77325;BME280;66387;53.440;10.390;2023-03-31T08:58:22;99083.78;;;10.00;93.23
77325;BME280;66387;53.440;10.390;2023-03-31T09:03:30;99087.81;;;10.09;93.00
77325;BME280;66387;53.440;10.390;2023-03-31T09:06:07;99071.44;;;10.07;92.73
77325;BME280;66387;53.440;10.390;2023-03-31T09:08:57;99074.09;;;10.05;91.56
77325;BME280;66387;53.440;10.390;2023-03-31T09:11:35;99069.22;;;9.96;92.48
77325;BME280;66387;53.440;10.390;2023-03-31T09:14:20;99068.34;;;9.97;92.58
77325;BME280;66387;53.440;10.390;2023-03-31T09:19:35;99056.97;;;10.01;93.66
77325;BME280;66387;53.440;10.390;2023-03-31T09:22:02;99055.56;;;9.91;93.92
77325;BME280;66387;53.440;10.390;2023-03-31T09:24:32;99057.97;;;9.97;94.00
77325;BME280;66387;53.440;10.390;2023-03-31T09:27:02;99048.72;;;9.90;94.14
77325;BME280;66387;53.440;10.390;2023-03-31T09:30:21;99050.06;;;10.00;94.29
77325;BME280;66387;53.440;10.390;2023-03-31T09:32:29;99049.25;;;9.98;94.30
77325;BME280;66387;53.440;10.390;2023-03-31T09:34:58;99048.63;;;9.92;93.93
77325;BME280;66387;53.440;10.390;2023-03-31T09:37:29;99040.25;;;9.85;94.46
77325;BME280;66387;53.440;10.390;2023-03-31T09:39:57;99042.69;;;9.90;94.62
77325;BME280;66387;53.440;10.390;2023-03-31T09:42:23;99027.88;;;9.93;94.30
77325;BME280;66387;53.440;10.390;2023-03-31T09:44:49;99027.78;;;9.95;93.64
77325;BME280;66387;53.440;10.390;2023-03-31T09:47:40;99033.94;;;9.92;94.35
77325;BME280;66387;53.440;10.390;2023-03-31T09:50:07;99027.91;;;9.92;94.24
77325;BME280;66387;53.440;10.390;2023-03-31T09:52:36;99012.88;;;10.01;94.54
77325;BME280;66387;53.440;10.390;2023-03-31T09:55:09;99011.56;;;10.13;94.82
77325;BME280;66387;53.440;10.390;2023-03-31T09:57:39;99006.59;;;10.08;93.86
77325;BME280;66387;53.440;10.390;2023-03-31T10:00:16;99013.44;;;10.09;93.55
77325;BME280;66387;53.440;10.390;2023-03-31T10:02:50;99007.16;;;10.16;94.74
77325;BME280;66387;53.440;10.390;2023-03-31T10:07:50;99006.13;;;10.20;94.25
77325;BME280;66387;53.440;10.390;2023-03-31T10:10:31;98996.69;;;10.19;94.03
77325;BME280;66387;53.440;10.390;2023-03-31T10:12:58;98996.88;;;10.13;94.64
77325;BME280;66387;53.440;10.390;2023-03-31T10:15:26;99000.13;;;10.20;94.82
77325;BME280;66387;53.440;10.390;2023-03-31T10:17:52;98997.59;;;10.18;94.79
77325;BME280;66387;53.440;10.390;2023-03-31T10:20:30;98991.97;;;10.52;93.64
77325;BME280;66387;53.440;10.390;2023-03-31T10:23:02;98990.28;;;10.28;93.10
77325;BME280;66387;53.440;10.390;2023-03-31T10:25:27;98984.03;;;10.33;93.15
77325;BME280;66387;53.440;10.390;2023-03-31T10:27:54;98981.88;;;10.45;94.26
77325;BME280;66387;53.440;10.390;2023-03-31T10:30:23;98982.44;;;10.53;94.22
77325;BME280;66387;53.440;10.390;2023-03-31T10:32:48;98972.25;;;10.48;92.89
77325;BME280;66387;53.440;10.390;2023-03-31T10:35:23;98973.81;;;10.52;93.69
77325;BME280;66387;53.440;10.390;2023-03-31T10:37:50;98977.25;;;10.53;94.36
77325;BME280;66387;53.440;10.390;2023-03-31T10:40:21;98972.47;;;10.64;94.41
77325;BME280;66387;53.440;10.390;2023-03-31T10:43:00;98972.59;;;10.61;93.00
77325;BME280;66387;53.440;10.390;2023-03-31T10:45:29;98971.63;;;10.42;92.23
77325;BME280;66387;53.440;10.390;2023-03-31T10:47:58;98976.19;;;10.57;94.31
77325;BME280;66387;53.440;10.390;2023-03-31T10:50:32;98973.19;;;10.67;93.61
77325;BME280;66387;53.440;10.390;2023-03-31T10:53:04;98969.47;;;10.74;93.73
77325;BME280;66387;53.440;10.390;2023-03-31T10:55:35;98963.31;;;10.77;93.46
77325;BME280;66387;53.440;10.390;2023-03-31T11:01:07;98960.31;;;10.86;93.45
77325;BME280;66387;53.440;10.390;2023-03-31T11:04:11;98955.69;;;10.72;91.98
77325;BME280;66387;53.440;10.390;2023-03-31T11:06:54;98949.91;;;10.66;92.75
77325;BME280;66387;53.440;10.390;2023-03-31T11:12:22;98946.47;;;10.65;91.88
77325;BME280;66387;53.440;10.390;2023-03-31T11:15:09;98944.84;;;10.63;93.10
77325;BME280;66387;53.440;10.390;2023-03-31T11:23:11;98940.97;;;10.51;93.81
77325;BME280;66387;53.440;10.390;2023-03-31T11:28:39;98937.00;;;10.43;93.60
77325;BME280;66387;53.440;10.390;2023-03-31T11:31:37;98940.44;;;10.43;94.19
77325;BME280;66387;53.440;10.390;2023-03-31T11:34:29;98925.66;;;10.45;95.25
77325;BME280;66387;53.440;10.390;2023-03-31T11:37:10;98926.09;;;10.35;94.45
77325;BME280;66387;53.440;10.390;2023-03-31T11:45:18;98913.75;;;10.40;94.80
77325;BME280;66387;53.440;10.390;2023-03-31T11:47:48;98913.94;;;10.35;94.82
77325;BME280;66387;53.440;10.390;2023-03-31T11:50:27;98915.63;;;10.36;95.16
77325;BME280;66387;53.440;10.390;2023-03-31T11:53:06;98908.88;;;10.32;96.03
77325;BME280;66387;53.440;10.390;2023-03-31T11:55:36;98908.56;;;10.40;95.66
77325;BME280;66387;53.440;10.390;2023-03-31T11:58:05;98906.47;;;10.27;94.87
77325;BME280;66387;53.440;10.390;2023-03-31T12:00:39;98905.47;;;10.08;95.29
77325;BME280;66387;53.440;10.390;2023-03-31T12:03:10;98902.69;;;10.13;95.92
77325;BME280;66387;53.440;10.390;2023-03-31T12:06:13;98895.31;;;10.02;95.70
77325;BME280;66387;53.440;10.390;2023-03-31T12:08:53;98902.91;;;10.07;96.38
77325;BME280;66387;53.440;10.390;2023-03-31T12:11:29;98890.69;;;10.10;96.73
77325;BME280;66387;53.440;10.390;2023-03-31T12:14:00;98888.34;;;10.04;96.63
77325;BME280;66387;53.440;10.390;2023-03-31T12:16:44;98883.63;;;10.14;96.66
77325;BME280;66387;53.440;10.390;2023-03-31T12:19:15;98876.69;;;10.16;95.79
77325;BME280;66387;53.440;10.390;2023-03-31T12:21:55;98881.63;;;10.22;95.49
77325;BME280;66387;53.440;10.390;2023-03-31T12:24:22;98886.38;;;10.09;95.28
77325;BME280;66387;53.440;10.390;2023-03-31T12:29:35;98874.56;;;10.25;95.30
77325;BME280;66387;53.440;10.390;2023-03-31T12:32:10;98867.63;;;10.26;95.63
77325;BME280;66387;53.440;10.390;2023-03-31T12:34:44;98866.91;;;10.22;95.22
77325;BME280;66387;53.440;10.390;2023-03-31T12:40:26;98855.22;;;10.34;94.89
77325;BME280;66387;53.440;10.390;2023-03-31T12:48:57;98844.09;;;10.52;95.25
77325;BME280;66387;53.440;10.390;2023-03-31T12:54:32;98841.19;;;10.60;94.89
77325;BME280;66387;53.440;10.390;2023-03-31T12:59:39;98835.88;;;10.63;94.88
77325;BME280;66387;53.440;10.390;2023-03-31T13:04:33;98828.91;;;11.04;94.50
77325;BME280;66387;53.440;10.390;2023-03-31T13:06:59;98828.19;;;11.20;94.04
77325;BME280;66387;53.440;10.390;2023-03-31T13:09:45;98827.38;;;11.18;92.58
77325;BME280;66387;53.440;10.390;2023-03-31T13:12:17;98821.63;;;11.12;94.01
77325;BME280;66387;53.440;10.390;2023-03-31T13:14:46;98819.72;;;11.15;94.72
77325;BME280;66387;53.440;10.390;2023-03-31T13:19:51;98812.50;;;11.03;92.56
77325;BME280;66387;53.440;10.390;2023-03-31T13:22:34;98814.28;;;11.21;93.86
77325;BME280;66387;53.440;10.390;2023-03-31T13:27:53;98804.66;;;11.23;94.39
77325;BME280;66387;53.440;10.390;2023-03-31T13:33:04;98800.94;;;11.10;93.05
77325;BME280;66387;53.440;10.390;2023-03-31T13:35:34;98800.56;;;10.99;92.85
77325;BME280;66387;53.440;10.390;2023-03-31T13:41:14;98801.59;;;10.95;93.13
77325;BME280;66387;53.440;10.390;2023-03-31T13:44:14;98794.69;;;10.94;92.72
77325;BME280;66387;53.440;10.390;2023-03-31T13:52:10;98798.53;;;10.86;92.26
77325;BME280;66387;53.440;10.390;2023-03-31T14:00:32;98793.88;;;10.53;92.93
77325;BME280;66387;53.440;10.390;2023-03-31T14:06:11;98782.97;;;10.65;93.38
77325;BME280;66387;53.440;10.390;2023-03-31T14:08:57;98793.31;;;10.67;93.74
77325;BME280;66387;53.440;10.390;2023-03-31T14:11:27;98785.53;;;10.67;93.54
77325;BME280;66387;53.440;10.390;2023-03-31T14:14:00;98786.81;;;10.77;95.29
77325;BME280;66387;53.440;10.390;2023-03-31T14:16:36;98783.09;;;10.82;92.65
77325;BME280;66387;53.440;10.390;2023-03-31T14:19:49;98785.94;;;10.97;92.78
77325;BME280;66387;53.440;10.390;2023-03-31T14:22:46;98781.00;;;11.11;91.69
77325;BME280;66387;53.440;10.390;2023-03-31T14:31:14;98777.78;;;11.24;89.01
77325;BME280;66387;53.440;10.390;2023-03-31T14:36:33;98771.09;;;11.38;88.17
77325;BME280;66387;53.440;10.390;2023-03-31T14:39:03;98768.44;;;11.39;87.33
77325;BME280;66387;53.440;10.390;2023-03-31T14:41:30;98766.13;;;11.52;87.66
77325;BME280;66387;53.440;10.390;2023-03-31T14:43:58;98766.75;;;11.38;87.24
77325;BME280;66387;53.440;10.390;2023-03-31T14:46:24;98764.16;;;11.57;87.82
77325;BME280;66387;53.440;10.390;2023-03-31T14:48:50;98764.16;;;11.57;86.56
77325;BME280;66387;53.440;10.390;2023-03-31T14:51:18;98766.56;;;11.61;85.56
77325;BME280;66387;53.440;10.390;2023-03-31T14:53:47;98761.78;;;11.71;85.53
77325;BME280;66387;53.440;10.390;2023-03-31T14:56:21;98766.94;;;11.72;84.76
77325;BME280;66387;53.440;10.390;2023-03-31T14:58:49;98756.78;;;11.85;85.09
77325;BME280;66387;53.440;10.390;2023-03-31T15:01:19;98766.00;;;11.73;85.06
77325;BME280;66387;53.440;10.390;2023-03-31T15:03:48;98771.06;;;11.58;82.91
77325;BME280;66387;53.440;10.390;2023-03-31T15:06:14;98762.47;;;11.56;84.05